sensor_id;sensor_type;location;lat;lon;timestamp;temperature;humidity
76996;DHT22;65929;49.062;10.338;2024-03-08T00:00:59;-0.60;88.70
76996;DHT22;65929;49.062;10.338;2024-03-08T00:02:00;-0.70;88.70
76996;DHT22;65929;49.062;10.338;2024-03-08T00:03:01;-0.70;88.70
76996;DHT22;65929;49.062;10.338;2024-03-08T00:04:02;-0.70;88.80
76996;DHT22;65929;49.062;10.338;2024-03-08T00:05:04;-0.70;88.90
76996;DHT22;65929;49.062;10.338;2024-03-08T00:06:05;-0.70;88.90
76996;DHT22;65929;49.062;10.338;2024-03-08T00:07:06;-0.80;88.80
76996;DHT22;65929;49.062;10.338;2024-03-08T00:08:09;-0.80;88.90
76996;DHT22;65929;49.062;10.338;2024-03-08T00:09:10;-0.90;88.90
76996;DHT22;65929;49.062;10.338;2024-03-08T00:10:12;-0.90;89.00
76996;DHT22;65929;49.062;10.338;2024-03-08T00:11:13;-0.90;89.00
76996;DHT22;65929;49.062;10.338;2024-03-08T00:12:14;-0.90;89.00
76996;DHT22;65929;49.062;10.338;2024-03-08T00:13:15;-1.00;89.40
76996;DHT22;65929;49.062;10.338;2024-03-08T00:14:16;-1.00;89.70
76996;DHT22;65929;49.062;10.338;2024-03-08T00:15:17;-1.00;89.90
76996;DHT22;65929;49.062;10.338;2024-03-08T00:16:18;-1.00;90.00
76996;DHT22;65929;49.062;10.338;2024-03-08T00:17:20;-0.90;90.10
76996;DHT22;65929;49.062;10.338;2024-03-08T00:18:23;-0.90;90.20
76996;DHT22;65929;49.062;10.338;2024-03-08T00:19:24;-0.90;90.20
76996;DHT22;65929;49.062;10.338;2024-03-08T00:20:25;-0.90;90.10
76996;DHT22;65929;49.062;10.338;2024-03-08T00:21:25;-0.90;90.00
76996;DHT22;65929;49.062;10.338;2024-03-08T00:22:27;-0.90;89.80
76996;DHT22;65929;49.062;10.338;2024-03-08T00:23:32;-0.90;89.80
76996;DHT22;65929;49.062;10.338;2024-03-08T00:24:34;-0.90;90.00
76996;DHT22;65929;49.062;10.338;2024-03-08T00:25:34;-1.00;90.00
76996;DHT22;65929;49.062;10.338;2024-03-08T00:26:36;-0.90;90.10
76996;DHT22;65929;49.062;10.338;2024-03-08T00:27:37;-0.90;90.20
76996;DHT22;65929;49.062;10.338;2024-03-08T00:28:50;-0.90;90.20
76996;DHT22;65929;49.062;10.338;2024-03-08T00:29:50;-0.90;89.90
76996;DHT22;65929;49.062;10.338;2024-03-08T00:30:51;-0.90;90.00
76996;DHT22;65929;49.062;10.338;2024-03-08T00:31:52;-0.90;89.90
76996;DHT22;65929;49.062;10.338;2024-03-08T00:32:53;-1.00;89.70
76996;DHT22;65929;49.062;10.338;2024-03-08T00:33:54;-1.00;89.90
76996;DHT22;65929;49.062;10.338;2024-03-08T00:34:55;-1.00;90.00
76996;DHT22;65929;49.062;10.338;2024-03-08T00:35:56;-1.00;90.00
76996;DHT22;65929;49.062;10.338;2024-03-08T00:36:57;-1.00;89.90
76996;DHT22;65929;49.062;10.338;2024-03-08T00:37:59;-1.00;90.20
76996;DHT22;65929;49.062;10.338;2024-03-08T00:39:01;-1.00;90.30
76996;DHT22;65929;49.062;10.338;2024-03-08T00:40:02;-1.00;90.20
76996;DHT22;65929;49.062;10.338;2024-03-08T00:41:04;-1.00;90.30
76996;DHT22;65929;49.062;10.338;2024-03-08T00:42:05;-1.00;90.30
76996;DHT22;65929;49.062;10.338;2024-03-08T00:43:05;-1.00;90.30
76996;DHT22;65929;49.062;10.338;2024-03-08T00:44:09;-1.00;90.30
76996;DHT22;65929;49.062;10.338;2024-03-08T00:45:11;-1.00;90.40
76996;DHT22;65929;49.062;10.338;2024-03-08T00:46:12;-1.00;90.30
76996;DHT22;65929;49.062;10.338;2024-03-08T00:47:13;-1.00;90.10
76996;DHT22;65929;49.062;10.338;2024-03-08T00:48:14;-1.00;90.30
76996;DHT22;65929;49.062;10.338;2024-03-08T00:49:15;-1.00;90.30
76996;DHT22;65929;49.062;10.338;2024-03-08T00:50:16;-1.00;90.30
76996;DHT22;65929;49.062;10.338;2024-03-08T00:51:17;-0.90;90.30
76996;DHT22;65929;49.062;10.338;2024-03-08T00:52:17;-0.90;90.40
76996;DHT22;65929;49.062;10.338;2024-03-08T00:53:19;-0.90;90.20
76996;DHT22;65929;49.062;10.338;2024-03-08T00:54:21;-0.90;90.20
76996;DHT22;65929;49.062;10.338;2024-03-08T00:55:22;-0.90;90.30
76996;DHT22;65929;49.062;10.338;2024-03-08T00:56:23;-0.90;90.20
76996;DHT22;65929;49.062;10.338;2024-03-08T00:57:25;-0.90;90.30
76996;DHT22;65929;49.062;10.338;2024-03-08T00:58:26;-0.90;90.20
76996;DHT22;65929;49.062;10.338;2024-03-08T00:59:27;-0.90;90.10
76996;DHT22;65929;49.062;10.338;2024-03-08T01:00:28;-0.90;90.20
76996;DHT22;65929;49.062;10.338;2024-03-08T01:01:29;-0.90;90.30
76996;DHT22;65929;49.062;10.338;2024-03-08T01:02:30;-0.90;90.30
76996;DHT22;65929;49.062;10.338;2024-03-08T01:03:31;-1.00;90.30
76996;DHT22;65929;49.062;10.338;2024-03-08T01:04:35;-1.00;90.40
76996;DHT22;65929;49.062;10.338;2024-03-08T01:05:36;-1.00;90.30
76996;DHT22;65929;49.062;10.338;2024-03-08T01:06:37;-1.00;90.20
76996;DHT22;65929;49.062;10.338;2024-03-08T01:07:37;-1.00;90.30
76996;DHT22;65929;49.062;10.338;2024-03-08T01:08:38;-1.00;90.30
76996;DHT22;65929;49.062;10.338;2024-03-08T01:09:44;-1.00;90.50
76996;DHT22;65929;49.062;10.338;2024-03-08T01:10:45;-1.00;90.50
76996;DHT22;65929;49.062;10.338;2024-03-08T01:11:46;-1.10;90.60
76996;DHT22;65929;49.062;10.338;2024-03-08T01:12:46;-1.10;90.60
76996;DHT22;65929;49.062;10.338;2024-03-08T01:13:47;-1.10;90.50
76996;DHT22;65929;49.062;10.338;2024-03-08T01:14:48;-1.10;90.40
76996;DHT22;65929;49.062;10.338;2024-03-08T01:15:49;-1.10;90.60
76996;DHT22;65929;49.062;10.338;2024-03-08T01:16:50;-1.10;90.70
76996;DHT22;65929;49.062;10.338;2024-03-08T01:17:51;-1.10;91.00
76996;DHT22;65929;49.062;10.338;2024-03-08T01:18:52;-1.10;90.90
76996;DHT22;65929;49.062;10.338;2024-03-08T01:19:54;-1.10;91.00
76996;DHT22;65929;49.062;10.338;2024-03-08T01:20:54;-1.20;91.00
76996;DHT22;65929;49.062;10.338;2024-03-08T01:21:55;-1.20;91.10
76996;DHT22;65929;49.062;10.338;2024-03-08T01:22:57;-1.20;91.10
76996;DHT22;65929;49.062;10.338;2024-03-08T01:23:58;-1.20;91.10
76996;DHT22;65929;49.062;10.338;2024-03-08T01:25:00;-1.10;91.20
76996;DHT22;65929;49.062;10.338;2024-03-08T01:26:01;-1.10;91.20
76996;DHT22;65929;49.062;10.338;2024-03-08T01:27:03;-1.10;91.20
76996;DHT22;65929;49.062;10.338;2024-03-08T01:28:04;-1.10;91.10
76996;DHT22;65929;49.062;10.338;2024-03-08T01:29:05;-1.10;91.00
76996;DHT22;65929;49.062;10.338;2024-03-08T01:30:07;-1.10;90.90
76996;DHT22;65929;49.062;10.338;2024-03-08T01:31:10;-1.10;91.00
76996;DHT22;65929;49.062;10.338;2024-03-08T01:32:10;-1.10;90.90
76996;DHT22;65929;49.062;10.338;2024-03-08T01:33:12;-1.10;90.90
76996;DHT22;65929;49.062;10.338;2024-03-08T01:34:13;-1.20;91.00
76996;DHT22;65929;49.062;10.338;2024-03-08T01:35:14;-1.20;91.10
76996;DHT22;65929;49.062;10.338;2024-03-08T01:36:15;-1.20;91.30
76996;DHT22;65929;49.062;10.338;2024-03-08T01:37:16;-1.20;91.40
76996;DHT22;65929;49.062;10.338;2024-03-08T01:38:17;-1.20;91.50
76996;DHT22;65929;49.062;10.338;2024-03-08T01:39:18;-1.20;91.40
76996;DHT22;65929;49.062;10.338;2024-03-08T01:40:20;-1.20;91.40
76996;DHT22;65929;49.062;10.338;2024-03-08T01:41:21;-1.10;91.50
76996;DHT22;65929;49.062;10.338;2024-03-08T01:42:22;-1.10;91.50
76996;DHT22;65929;49.062;10.338;2024-03-08T01:43:26;-1.10;91.50
76996;DHT22;65929;49.062;10.338;2024-03-08T01:44:30;-1.10;91.50
76996;DHT22;65929;49.062;10.338;2024-03-08T01:45:32;-1.10;91.40
76996;DHT22;65929;49.062;10.338;2024-03-08T01:46:35;-1.10;91.20
76996;DHT22;65929;49.062;10.338;2024-03-08T01:47:36;-1.10;91.30
76996;DHT22;65929;49.062;10.338;2024-03-08T01:48:37;-1.10;91.30
76996;DHT22;65929;49.062;10.338;2024-03-08T01:49:38;-1.10;91.30
76996;DHT22;65929;49.062;10.338;2024-03-08T01:50:40;-1.10;91.50
76996;DHT22;65929;49.062;10.338;2024-03-08T01:51:41;-1.10;91.40
76996;DHT22;65929;49.062;10.338;2024-03-08T01:52:43;-1.10;91.40
76996;DHT22;65929;49.062;10.338;2024-03-08T01:53:46;-1.10;91.50
76996;DHT22;65929;49.062;10.338;2024-03-08T01:54:47;-1.10;91.50
76996;DHT22;65929;49.062;10.338;2024-03-08T01:55:53;-1.00;91.50
76996;DHT22;65929;49.062;10.338;2024-03-08T01:56:54;-1.00;91.50
76996;DHT22;65929;49.062;10.338;2024-03-08T01:57:55;-1.00;91.50
76996;DHT22;65929;49.062;10.338;2024-03-08T01:58:56;-0.90;91.40
76996;DHT22;65929;49.062;10.338;2024-03-08T01:59:57;-0.90;91.20
76996;DHT22;65929;49.062;10.338;2024-03-08T02:00:58;-0.80;91.20
76996;DHT22;65929;49.062;10.338;2024-03-08T02:02:01;-0.70;91.00
76996;DHT22;65929;49.062;10.338;2024-03-08T02:03:03;-0.70;90.70
76996;DHT22;65929;49.062;10.338;2024-03-08T02:04:04;-0.70;90.70
76996;DHT22;65929;49.062;10.338;2024-03-08T02:05:07;-0.70;90.60
76996;DHT22;65929;49.062;10.338;2024-03-08T02:06:09;-0.70;90.50
76996;DHT22;65929;49.062;10.338;2024-03-08T02:07:10;-0.70;90.40
76996;DHT22;65929;49.062;10.338;2024-03-08T02:08:12;-0.70;90.20
76996;DHT22;65929;49.062;10.338;2024-03-08T02:09:15;-0.70;90.10
76996;DHT22;65929;49.062;10.338;2024-03-08T02:10:17;-0.70;90.00
76996;DHT22;65929;49.062;10.338;2024-03-08T02:11:19;-0.70;90.00
76996;DHT22;65929;49.062;10.338;2024-03-08T02:12:21;-0.70;90.00
76996;DHT22;65929;49.062;10.338;2024-03-08T02:13:22;-0.70;90.00
76996;DHT22;65929;49.062;10.338;2024-03-08T02:14:23;-0.70;89.90
76996;DHT22;65929;49.062;10.338;2024-03-08T02:15:24;-0.70;89.90
76996;DHT22;65929;49.062;10.338;2024-03-08T02:16:25;-0.70;90.00
76996;DHT22;65929;49.062;10.338;2024-03-08T02:17:26;-0.70;90.00
76996;DHT22;65929;49.062;10.338;2024-03-08T02:18:28;-0.70;90.00
76996;DHT22;65929;49.062;10.338;2024-03-08T02:19:29;-0.70;90.10
76996;DHT22;65929;49.062;10.338;2024-03-08T02:20:31;-0.70;90.00
76996;DHT22;65929;49.062;10.338;2024-03-08T02:21:32;-0.80;90.10
76996;DHT22;65929;49.062;10.338;2024-03-08T02:22:33;-0.80;90.20
76996;DHT22;65929;49.062;10.338;2024-03-08T02:23:34;-0.80;90.10
76996;DHT22;65929;49.062;10.338;2024-03-08T02:24:35;-0.80;90.20
76996;DHT22;65929;49.062;10.338;2024-03-08T02:25:36;-0.90;90.20
76996;DHT22;65929;49.062;10.338;2024-03-08T02:26:37;-0.90;90.40
76996;DHT22;65929;49.062;10.338;2024-03-08T02:27:38;-0.90;90.40
76996;DHT22;65929;49.062;10.338;2024-03-08T02:28:39;-0.90;90.30
76996;DHT22;65929;49.062;10.338;2024-03-08T02:29:40;-0.90;90.50
76996;DHT22;65929;49.062;10.338;2024-03-08T02:30:43;-1.00;90.50
76996;DHT22;65929;49.062;10.338;2024-03-08T02:31:44;-1.00;90.60
76996;DHT22;65929;49.062;10.338;2024-03-08T02:32:45;-1.00;90.70
76996;DHT22;65929;49.062;10.338;2024-03-08T02:33:45;-0.90;90.80
76996;DHT22;65929;49.062;10.338;2024-03-08T02:34:48;-1.00;90.80
76996;DHT22;65929;49.062;10.338;2024-03-08T02:35:51;-1.00;90.80
76996;DHT22;65929;49.062;10.338;2024-03-08T02:36:52;-0.90;90.90
76996;DHT22;65929;49.062;10.338;2024-03-08T02:37:53;-0.90;90.90
76996;DHT22;65929;49.062;10.338;2024-03-08T02:38:54;-0.90;90.90
76996;DHT22;65929;49.062;10.338;2024-03-08T02:39:56;-0.90;90.90
76996;DHT22;65929;49.062;10.338;2024-03-08T02:40:56;-0.90;90.80
76996;DHT22;65929;49.062;10.338;2024-03-08T02:41:57;-0.90;90.70
76996;DHT22;65929;49.062;10.338;2024-03-08T02:42:58;-0.90;90.70
76996;DHT22;65929;49.062;10.338;2024-03-08T02:43:59;-0.90;90.70
76996;DHT22;65929;49.062;10.338;2024-03-08T02:45:00;-0.90;90.70
76996;DHT22;65929;49.062;10.338;2024-03-08T02:46:01;-0.90;90.70
76996;DHT22;65929;49.062;10.338;2024-03-08T02:47:02;-0.90;90.70
76996;DHT22;65929;49.062;10.338;2024-03-08T02:48:04;-0.90;90.70
76996;DHT22;65929;49.062;10.338;2024-03-08T02:49:07;-0.90;90.60
76996;DHT22;65929;49.062;10.338;2024-03-08T02:50:09;-0.90;90.60
76996;DHT22;65929;49.062;10.338;2024-03-08T02:51:11;-0.90;90.60
76996;DHT22;65929;49.062;10.338;2024-03-08T02:52:12;-0.90;90.60
76996;DHT22;65929;49.062;10.338;2024-03-08T02:53:13;-0.90;90.70
76996;DHT22;65929;49.062;10.338;2024-03-08T02:54:14;-0.90;90.80
76996;DHT22;65929;49.062;10.338;2024-03-08T02:55:15;-0.90;90.70
76996;DHT22;65929;49.062;10.338;2024-03-08T02:56:16;-0.90;90.50
76996;DHT22;65929;49.062;10.338;2024-03-08T02:57:17;-0.90;90.50
76996;DHT22;65929;49.062;10.338;2024-03-08T02:58:19;-0.90;90.50
76996;DHT22;65929;49.062;10.338;2024-03-08T02:59:19;-0.90;90.40
76996;DHT22;65929;49.062;10.338;2024-03-08T03:00:21;-1.00;90.50
76996;DHT22;65929;49.062;10.338;2024-03-08T03:01:23;-1.00;90.40
76996;DHT22;65929;49.062;10.338;2024-03-08T03:02:24;-1.00;90.60
76996;DHT22;65929;49.062;10.338;2024-03-08T03:03:25;-1.00;90.70
76996;DHT22;65929;49.062;10.338;2024-03-08T03:04:27;-1.00;90.70
76996;DHT22;65929;49.062;10.338;2024-03-08T03:05:29;-1.00;90.80
76996;DHT22;65929;49.062;10.338;2024-03-08T03:06:31;-1.10;90.80
76996;DHT22;65929;49.062;10.338;2024-03-08T03:07:34;-1.10;90.90
76996;DHT22;65929;49.062;10.338;2024-03-08T03:08:36;-1.10;90.90
76996;DHT22;65929;49.062;10.338;2024-03-08T03:09:37;-1.10;91.00
76996;DHT22;65929;49.062;10.338;2024-03-08T03:10:37;-1.10;91.10
76996;DHT22;65929;49.062;10.338;2024-03-08T03:11:38;-1.10;91.20
76996;DHT22;65929;49.062;10.338;2024-03-08T03:12:40;-1.10;91.20
76996;DHT22;65929;49.062;10.338;2024-03-08T03:13:41;-1.10;91.30
76996;DHT22;65929;49.062;10.338;2024-03-08T03:14:43;-1.10;91.30
76996;DHT22;65929;49.062;10.338;2024-03-08T03:15:44;-1.10;91.40
76996;DHT22;65929;49.062;10.338;2024-03-08T03:16:46;-1.10;91.50
76996;DHT22;65929;49.062;10.338;2024-03-08T03:17:47;-1.10;91.60
76996;DHT22;65929;49.062;10.338;2024-03-08T03:18:48;-1.10;91.60
76996;DHT22;65929;49.062;10.338;2024-03-08T03:19:49;-1.10;91.60
76996;DHT22;65929;49.062;10.338;2024-03-08T03:20:51;-1.10;91.60
76996;DHT22;65929;49.062;10.338;2024-03-08T03:21:53;-1.10;91.60
76996;DHT22;65929;49.062;10.338;2024-03-08T03:22:54;-1.10;91.50
76996;DHT22;65929;49.062;10.338;2024-03-08T03:23:57;-1.10;91.50
76996;DHT22;65929;49.062;10.338;2024-03-08T03:24:59;-1.10;91.50
76996;DHT22;65929;49.062;10.338;2024-03-08T03:26:03;-1.10;91.50
76996;DHT22;65929;49.062;10.338;2024-03-08T03:27:04;-1.10;91.60
76996;DHT22;65929;49.062;10.338;2024-03-08T03:28:11;-1.10;91.70
76996;DHT22;65929;49.062;10.338;2024-03-08T03:29:15;-1.10;91.70
76996;DHT22;65929;49.062;10.338;2024-03-08T03:30:17;-1.10;91.50
76996;DHT22;65929;49.062;10.338;2024-03-08T03:31:24;-1.20;91.40
76996;DHT22;65929;49.062;10.338;2024-03-08T03:32:26;-1.20;91.40
76996;DHT22;65929;49.062;10.338;2024-03-08T03:33:27;-1.30;91.50
76996;DHT22;65929;49.062;10.338;2024-03-08T03:34:28;-1.30;91.60
76996;DHT22;65929;49.062;10.338;2024-03-08T03:35:29;-1.30;91.80
76996;DHT22;65929;49.062;10.338;2024-03-08T03:36:30;-1.30;91.90
76996;DHT22;65929;49.062;10.338;2024-03-08T03:37:33;-1.30;91.90
76996;DHT22;65929;49.062;10.338;2024-03-08T03:38:34;-1.30;92.10
76996;DHT22;65929;49.062;10.338;2024-03-08T03:39:35;-1.30;92.10
76996;DHT22;65929;49.062;10.338;2024-03-08T03:40:41;-1.30;92.20
76996;DHT22;65929;49.062;10.338;2024-03-08T03:41:42;-1.30;92.20
76996;DHT22;65929;49.062;10.338;2024-03-08T03:42:45;-1.30;92.20
76996;DHT22;65929;49.062;10.338;2024-03-08T03:43:46;-1.30;92.20
76996;DHT22;65929;49.062;10.338;2024-03-08T03:44:48;-1.30;92.20
76996;DHT22;65929;49.062;10.338;2024-03-08T03:45:49;-1.30;92.20
76996;DHT22;65929;49.062;10.338;2024-03-08T03:46:51;-1.30;92.20
76996;DHT22;65929;49.062;10.338;2024-03-08T03:47:52;-1.30;92.20
76996;DHT22;65929;49.062;10.338;2024-03-08T03:48:53;-1.30;92.20
76996;DHT22;65929;49.062;10.338;2024-03-08T03:49:54;-1.30;92.20
76996;DHT22;65929;49.062;10.338;2024-03-08T03:50:56;-1.30;92.20
76996;DHT22;65929;49.062;10.338;2024-03-08T03:51:57;-1.30;92.20
76996;DHT22;65929;49.062;10.338;2024-03-08T03:52:59;-1.30;92.20
76996;DHT22;65929;49.062;10.338;2024-03-08T03:54:00;-1.30;92.20
76996;DHT22;65929;49.062;10.338;2024-03-08T03:55:01;-1.30;92.20
76996;DHT22;65929;49.062;10.338;2024-03-08T03:56:02;-1.30;92.20
76996;DHT22;65929;49.062;10.338;2024-03-08T03:57:03;-1.30;92.20
76996;DHT22;65929;49.062;10.338;2024-03-08T03:58:04;-1.40;92.30
76996;DHT22;65929;49.062;10.338;2024-03-08T03:59:05;-1.40;92.40
76996;DHT22;65929;49.062;10.338;2024-03-08T04:00:07;-1.40;92.40
76996;DHT22;65929;49.062;10.338;2024-03-08T04:01:11;-1.40;92.50
76996;DHT22;65929;49.062;10.338;2024-03-08T04:02:12;-1.40;92.40
76996;DHT22;65929;49.062;10.338;2024-03-08T04:03:13;-1.50;92.60
76996;DHT22;65929;49.062;10.338;2024-03-08T04:04:14;-1.50;92.70
76996;DHT22;65929;49.062;10.338;2024-03-08T04:05:15;-1.40;92.80
76996;DHT22;65929;49.062;10.338;2024-03-08T04:06:15;-1.50;92.80
76996;DHT22;65929;49.062;10.338;2024-03-08T04:07:17;-1.40;92.80
76996;DHT22;65929;49.062;10.338;2024-03-08T04:08:19;-1.50;92.80
76996;DHT22;65929;49.062;10.338;2024-03-08T04:09:20;-1.50;92.90
76996;DHT22;65929;49.062;10.338;2024-03-08T04:10:22;-1.50;93.00
76996;DHT22;65929;49.062;10.338;2024-03-08T04:11:23;-1.40;93.00
76996;DHT22;65929;49.062;10.338;2024-03-08T04:12:24;-1.50;93.00
76996;DHT22;65929;49.062;10.338;2024-03-08T04:13:25;-1.50;93.00
76996;DHT22;65929;49.062;10.338;2024-03-08T04:14:27;-1.50;93.00
76996;DHT22;65929;49.062;10.338;2024-03-08T04:15:27;-1.50;93.00
76996;DHT22;65929;49.062;10.338;2024-03-08T04:16:28;-1.50;93.00
76996;DHT22;65929;49.062;10.338;2024-03-08T04:17:29;-1.40;93.00
76996;DHT22;65929;49.062;10.338;2024-03-08T04:18:30;-1.40;93.10
76996;DHT22;65929;49.062;10.338;2024-03-08T04:19:31;-1.40;93.00
76996;DHT22;65929;49.062;10.338;2024-03-08T04:20:32;-1.40;92.90
76996;DHT22;65929;49.062;10.338;2024-03-08T04:21:33;-1.40;92.90
76996;DHT22;65929;49.062;10.338;2024-03-08T04:22:34;-1.50;93.00
76996;DHT22;65929;49.062;10.338;2024-03-08T04:23:37;-1.50;92.90
76996;DHT22;65929;49.062;10.338;2024-03-08T04:24:38;-1.50;92.90
76996;DHT22;65929;49.062;10.338;2024-03-08T04:25:40;-1.50;93.00
76996;DHT22;65929;49.062;10.338;2024-03-08T04:26:42;-1.50;93.00
76996;DHT22;65929;49.062;10.338;2024-03-08T04:27:44;-1.50;93.00
76996;DHT22;65929;49.062;10.338;2024-03-08T04:28:45;-1.50;93.00
76996;DHT22;65929;49.062;10.338;2024-03-08T04:29:46;-1.50;93.20
76996;DHT22;65929;49.062;10.338;2024-03-08T04:30:47;-1.50;93.30
76996;DHT22;65929;49.062;10.338;2024-03-08T04:31:48;-1.50;93.30
76996;DHT22;65929;49.062;10.338;2024-03-08T04:32:48;-1.50;93.40
76996;DHT22;65929;49.062;10.338;2024-03-08T04:33:49;-1.50;93.40
76996;DHT22;65929;49.062;10.338;2024-03-08T04:34:50;-1.50;93.50
76996;DHT22;65929;49.062;10.338;2024-03-08T04:35:51;-1.50;93.50
76996;DHT22;65929;49.062;10.338;2024-03-08T04:36:52;-1.50;93.40
76996;DHT22;65929;49.062;10.338;2024-03-08T04:37:53;-1.50;93.40
76996;DHT22;65929;49.062;10.338;2024-03-08T04:38:56;-1.50;93.40
76996;DHT22;65929;49.062;10.338;2024-03-08T04:39:56;-1.50;93.40
76996;DHT22;65929;49.062;10.338;2024-03-08T04:40:58;-1.50;93.50
76996;DHT22;65929;49.062;10.338;2024-03-08T04:42:01;-1.50;93.60
76996;DHT22;65929;49.062;10.338;2024-03-08T04:43:07;-1.50;93.60
76996;DHT22;65929;49.062;10.338;2024-03-08T04:44:09;-1.50;93.50
76996;DHT22;65929;49.062;10.338;2024-03-08T04:45:11;-1.50;93.40
76996;DHT22;65929;49.062;10.338;2024-03-08T04:46:12;-1.50;93.40
76996;DHT22;65929;49.062;10.338;2024-03-08T04:47:13;-1.50;93.40
76996;DHT22;65929;49.062;10.338;2024-03-08T04:48:14;-1.50;93.50
76996;DHT22;65929;49.062;10.338;2024-03-08T04:49:16;-1.50;93.50
76996;DHT22;65929;49.062;10.338;2024-03-08T04:50:17;-1.50;93.50
76996;DHT22;65929;49.062;10.338;2024-03-08T04:51:18;-1.50;93.50
76996;DHT22;65929;49.062;10.338;2024-03-08T04:52:20;-1.50;93.50
76996;DHT22;65929;49.062;10.338;2024-03-08T04:53:22;-1.50;93.50
76996;DHT22;65929;49.062;10.338;2024-03-08T04:54:25;-1.60;93.40
76996;DHT22;65929;49.062;10.338;2024-03-08T04:55:26;-1.60;93.40
76996;DHT22;65929;49.062;10.338;2024-03-08T04:56:27;-1.60;93.50
76996;DHT22;65929;49.062;10.338;2024-03-08T04:57:27;-1.60;93.50
76996;DHT22;65929;49.062;10.338;2024-03-08T04:58:28;-1.60;93.50
76996;DHT22;65929;49.062;10.338;2024-03-08T04:59:29;-1.60;93.60
76996;DHT22;65929;49.062;10.338;2024-03-08T05:00:30;-1.60;93.60
76996;DHT22;65929;49.062;10.338;2024-03-08T05:01:31;-1.70;93.70
76996;DHT22;65929;49.062;10.338;2024-03-08T05:02:32;-1.60;93.80
76996;DHT22;65929;49.062;10.338;2024-03-08T05:03:33;-1.60;93.90
76996;DHT22;65929;49.062;10.338;2024-03-08T05:04:34;-1.60;93.90
76996;DHT22;65929;49.062;10.338;2024-03-08T05:05:35;-1.60;93.90
76996;DHT22;65929;49.062;10.338;2024-03-08T05:06:37;-1.60;93.90
76996;DHT22;65929;49.062;10.338;2024-03-08T05:07:37;-1.70;93.90
76996;DHT22;65929;49.062;10.338;2024-03-08T05:08:38;-1.60;93.80
76996;DHT22;65929;49.062;10.338;2024-03-08T05:09:41;-1.70;93.80
76996;DHT22;65929;49.062;10.338;2024-03-08T05:10:42;-1.70;93.80
76996;DHT22;65929;49.062;10.338;2024-03-08T05:11:43;-1.70;93.80
76996;DHT22;65929;49.062;10.338;2024-03-08T05:12:44;-1.70;93.90
76996;DHT22;65929;49.062;10.338;2024-03-08T05:13:45;-1.70;93.80
76996;DHT22;65929;49.062;10.338;2024-03-08T05:14:46;-1.70;93.70
76996;DHT22;65929;49.062;10.338;2024-03-08T05:15:50;-1.70;93.70
76996;DHT22;65929;49.062;10.338;2024-03-08T05:16:51;-1.70;93.70
76996;DHT22;65929;49.062;10.338;2024-03-08T05:17:52;-1.80;93.70
76996;DHT22;65929;49.062;10.338;2024-03-08T05:18:56;-1.80;93.70
76996;DHT22;65929;49.062;10.338;2024-03-08T05:19:57;-1.80;93.70
76996;DHT22;65929;49.062;10.338;2024-03-08T05:20:58;-1.80;93.80
76996;DHT22;65929;49.062;10.338;2024-03-08T05:21:59;-1.80;93.80
76996;DHT22;65929;49.062;10.338;2024-03-08T05:23:00;-1.80;93.70
76996;DHT22;65929;49.062;10.338;2024-03-08T05:24:01;-1.80;93.70
76996;DHT22;65929;49.062;10.338;2024-03-08T05:25:05;-1.90;93.70
76996;DHT22;65929;49.062;10.338;2024-03-08T05:26:08;-1.90;93.70
76996;DHT22;65929;49.062;10.338;2024-03-08T05:27:09;-1.90;93.70
76996;DHT22;65929;49.062;10.338;2024-03-08T05:28:10;-1.90;93.90
76996;DHT22;65929;49.062;10.338;2024-03-08T05:29:11;-1.90;94.00
76996;DHT22;65929;49.062;10.338;2024-03-08T05:30:13;-1.80;94.20
76996;DHT22;65929;49.062;10.338;2024-03-08T05:31:19;-1.80;94.10
76996;DHT22;65929;49.062;10.338;2024-03-08T05:32:20;-1.80;94.20
76996;DHT22;65929;49.062;10.338;2024-03-08T05:33:21;-1.80;94.30
76996;DHT22;65929;49.062;10.338;2024-03-08T05:34:22;-1.80;94.20
76996;DHT22;65929;49.062;10.338;2024-03-08T05:35:23;-1.70;94.30
76996;DHT22;65929;49.062;10.338;2024-03-08T05:36:25;-1.70;94.30
76996;DHT22;65929;49.062;10.338;2024-03-08T05:37:26;-1.70;94.20
76996;DHT22;65929;49.062;10.338;2024-03-08T05:38:27;-1.70;94.20
76996;DHT22;65929;49.062;10.338;2024-03-08T05:39:28;-1.70;94.10
76996;DHT22;65929;49.062;10.338;2024-03-08T05:40:31;-1.70;94.00
76996;DHT22;65929;49.062;10.338;2024-03-08T05:41:32;-1.70;93.90
76996;DHT22;65929;49.062;10.338;2024-03-08T05:42:33;-1.70;93.80
76996;DHT22;65929;49.062;10.338;2024-03-08T05:43:34;-1.70;93.90
76996;DHT22;65929;49.062;10.338;2024-03-08T05:44:35;-1.70;93.90
76996;DHT22;65929;49.062;10.338;2024-03-08T05:45:36;-1.70;93.90
76996;DHT22;65929;49.062;10.338;2024-03-08T05:46:37;-1.70;93.90
76996;DHT22;65929;49.062;10.338;2024-03-08T05:47:39;-1.70;93.80
76996;DHT22;65929;49.062;10.338;2024-03-08T05:48:40;-1.70;93.70
76996;DHT22;65929;49.062;10.338;2024-03-08T05:49:42;-1.70;93.70
76996;DHT22;65929;49.062;10.338;2024-03-08T05:50:45;-1.70;93.70
76996;DHT22;65929;49.062;10.338;2024-03-08T05:51:46;-1.70;93.60
76996;DHT22;65929;49.062;10.338;2024-03-08T05:52:48;-1.80;93.60
76996;DHT22;65929;49.062;10.338;2024-03-08T05:53:50;-1.70;93.70
76996;DHT22;65929;49.062;10.338;2024-03-08T05:54:51;-1.70;93.80
76996;DHT22;65929;49.062;10.338;2024-03-08T05:55:53;-1.70;93.70
76996;DHT22;65929;49.062;10.338;2024-03-08T05:56:54;-1.70;93.70
76996;DHT22;65929;49.062;10.338;2024-03-08T05:57:55;-1.70;93.70
76996;DHT22;65929;49.062;10.338;2024-03-08T05:58:57;-1.70;93.70
76996;DHT22;65929;49.062;10.338;2024-03-08T06:00:01;-1.70;93.90
76996;DHT22;65929;49.062;10.338;2024-03-08T06:01:02;-1.70;94.00
76996;DHT22;65929;49.062;10.338;2024-03-08T06:02:03;-1.60;94.00
76996;DHT22;65929;49.062;10.338;2024-03-08T06:03:04;-1.60;94.10
76996;DHT22;65929;49.062;10.338;2024-03-08T06:04:05;-1.50;94.00
76996;DHT22;65929;49.062;10.338;2024-03-08T06:05:08;-1.50;94.00
76996;DHT22;65929;49.062;10.338;2024-03-08T06:06:09;-1.50;94.00
76996;DHT22;65929;49.062;10.338;2024-03-08T06:07:09;-1.40;94.00
76996;DHT22;65929;49.062;10.338;2024-03-08T06:08:13;-1.40;93.80
76996;DHT22;65929;49.062;10.338;2024-03-08T06:09:15;-1.30;93.70
76996;DHT22;65929;49.062;10.338;2024-03-08T06:10:23;-1.30;93.60
76996;DHT22;65929;49.062;10.338;2024-03-08T06:11:25;-1.30;93.50
76996;DHT22;65929;49.062;10.338;2024-03-08T06:12:31;-1.20;93.40
76996;DHT22;65929;49.062;10.338;2024-03-08T06:13:34;-1.10;93.30
76996;DHT22;65929;49.062;10.338;2024-03-08T06:14:35;-1.10;93.20
76996;DHT22;65929;49.062;10.338;2024-03-08T06:15:36;-1.10;92.90
76996;DHT22;65929;49.062;10.338;2024-03-08T06:16:37;-1.00;92.80
76996;DHT22;65929;49.062;10.338;2024-03-08T06:17:39;-1.00;92.60
76996;DHT22;65929;49.062;10.338;2024-03-08T06:18:39;-0.90;92.50
76996;DHT22;65929;49.062;10.338;2024-03-08T06:19:41;-0.90;92.50
76996;DHT22;65929;49.062;10.338;2024-03-08T06:20:42;-0.80;92.30
76996;DHT22;65929;49.062;10.338;2024-03-08T06:21:44;-0.70;92.10
76996;DHT22;65929;49.062;10.338;2024-03-08T06:22:46;-0.70;91.90